sensor_id;sensor_type;location;lat;lon;timestamp;P1;durP1;ratioP1;P2;durP2;ratioP2
54191;SDS011;40101;53.002;6.488;2024-01-10T00:02:20;16.17;;;9.40;;
54191;SDS011;40101;53.002;6.488;2024-01-10T00:04:46;16.95;;;9.98;;
54191;SDS011;40101;53.002;6.488;2024-01-10T00:07:11;15.05;;;8.93;;
54191;SDS011;40101;53.002;6.488;2024-01-10T00:09:37;20.63;;;10.63;;
54191;SDS011;40101;53.002;6.488;2024-01-10T00:12:02;18.23;;;9.55;;
54191;SDS011;40101;53.002;6.488;2024-01-10T00:14:28;17.83;;;9.95;;
54191;SDS011;40101;53.002;6.488;2024-01-10T00:16:54;18.23;;;10.20;;
54191;SDS011;40101;53.002;6.488;2024-01-10T00:19:19;17.80;;;9.57;;
54191;SDS011;40101;53.002;6.488;2024-01-10T00:21:45;15.77;;;9.50;;
54191;SDS011;40101;53.002;6.488;2024-01-10T00:24:11;17.40;;;9.38;;
54191;SDS011;40101;53.002;6.488;2024-01-10T00:30:48;18.33;;;9.52;;
54191;SDS011;40101;53.002;6.488;2024-01-10T00:33:17;17.20;;;9.48;;
54191;SDS011;40101;53.002;6.488;2024-01-10T00:35:43;18.25;;;9.48;;
54191;SDS011;40101;53.002;6.488;2024-01-10T01:25:07;21.35;;;11.90;;
54191;SDS011;40101;53.002;6.488;2024-01-10T01:40:14;25.10;;;14.18;;
54191;SDS011;40101;53.002;6.488;2024-01-10T01:43:34;22.85;;;13.55;;
54191;SDS011;40101;53.002;6.488;2024-01-10T01:50:38;24.20;;;13.90;;
54191;SDS011;40101;53.002;6.488;2024-01-10T01:53:05;26.95;;;13.40;;
54191;SDS011;40101;53.002;6.488;2024-01-10T01:55:41;25.15;;;13.43;;
54191;SDS011;40101;53.002;6.488;2024-01-10T01:58:18;24.42;;;13.38;;
54191;SDS011;40101;53.002;6.488;2024-01-10T02:01:03;26.15;;;14.82;;
54191;SDS011;40101;53.002;6.488;2024-01-10T02:03:32;26.13;;;13.85;;
54191;SDS011;40101;53.002;6.488;2024-01-10T02:06:01;26.38;;;13.77;;
54191;SDS011;40101;53.002;6.488;2024-01-10T02:08:31;24.23;;;13.75;;
54191;SDS011;40101;53.002;6.488;2024-01-10T02:11:24;21.65;;;13.48;;
54191;SDS011;40101;53.002;6.488;2024-01-10T02:14:02;25.63;;;14.30;;
54191;SDS011;40101;53.002;6.488;2024-01-10T02:16:33;23.15;;;12.85;;
54191;SDS011;40101;53.002;6.488;2024-01-10T02:19:16;26.65;;;13.55;;
54191;SDS011;40101;53.002;6.488;2024-01-10T02:21:45;22.23;;;11.90;;
54191;SDS011;40101;53.002;6.488;2024-01-10T02:24:10;22.60;;;12.95;;
54191;SDS011;40101;53.002;6.488;2024-01-10T02:26:38;22.40;;;12.35;;
54191;SDS011;40101;53.002;6.488;2024-01-10T02:29:07;28.55;;;13.48;;
54191;SDS011;40101;53.002;6.488;2024-01-10T02:31:36;24.52;;;13.27;;
54191;SDS011;40101;53.002;6.488;2024-01-10T02:34:02;25.45;;;14.43;;
54191;SDS011;40101;53.002;6.488;2024-01-10T02:36:37;22.10;;;12.50;;
54191;SDS011;40101;53.002;6.488;2024-01-10T02:39:18;21.17;;;11.88;;
54191;SDS011;40101;53.002;6.488;2024-01-10T02:51:50;21.48;;;12.20;;
54191;SDS011;40101;53.002;6.488;2024-01-10T02:58:32;23.83;;;12.75;;
54191;SDS011;40101;53.002;6.488;2024-01-10T03:00:58;23.58;;;12.50;;
54191;SDS011;40101;53.002;6.488;2024-01-10T03:03:44;21.65;;;12.75;;
54191;SDS011;40101;53.002;6.488;2024-01-10T03:06:53;30.33;;;12.63;;
54191;SDS011;40101;53.002;6.488;2024-01-10T03:15:32;26.80;;;14.60;;
54191;SDS011;40101;53.002;6.488;2024-01-10T03:17:59;23.88;;;13.52;;
54191;SDS011;40101;53.002;6.488;2024-01-10T03:20:40;29.13;;;13.07;;
54191;SDS011;40101;53.002;6.488;2024-01-10T03:23:59;22.83;;;12.10;;
54191;SDS011;40101;53.002;6.488;2024-01-10T03:27:01;22.02;;;12.35;;
54191;SDS011;40101;53.002;6.488;2024-01-10T03:29:41;25.80;;;12.73;;
54191;SDS011;40101;53.002;6.488;2024-01-10T03:32:13;18.15;;;10.77;;
54191;SDS011;40101;53.002;6.488;2024-01-10T03:34:42;22.38;;;13.88;;
54191;SDS011;40101;53.002;6.488;2024-01-10T03:37:08;25.13;;;14.75;;
54191;SDS011;40101;53.002;6.488;2024-01-10T03:39:33;26.67;;;13.60;;
54191;SDS011;40101;53.002;6.488;2024-01-10T03:41:59;29.02;;;13.32;;
54191;SDS011;40101;53.002;6.488;2024-01-10T03:44:28;25.17;;;12.75;;
54191;SDS011;40101;53.002;6.488;2024-01-10T03:47:00;24.75;;;13.70;;
54191;SDS011;40101;53.002;6.488;2024-01-10T03:49:26;26.60;;;13.02;;
54191;SDS011;40101;53.002;6.488;2024-01-10T03:51:55;26.27;;;14.52;;
54191;SDS011;40101;53.002;6.488;2024-01-10T03:54:21;23.92;;;13.65;;
54191;SDS011;40101;53.002;6.488;2024-01-10T03:56:46;23.15;;;13.57;;
54191;SDS011;40101;53.002;6.488;2024-01-10T03:59:12;21.35;;;12.48;;
54191;SDS011;40101;53.002;6.488;2024-01-10T04:01:38;24.98;;;13.23;;
54191;SDS011;40101;53.002;6.488;2024-01-10T04:04:10;27.67;;;14.80;;
54191;SDS011;40101;53.002;6.488;2024-01-10T04:06:36;21.48;;;12.80;;
54191;SDS011;40101;53.002;6.488;2024-01-10T04:09:03;26.80;;;12.95;;
54191;SDS011;40101;53.002;6.488;2024-01-10T04:11:32;26.30;;;14.13;;
54191;SDS011;40101;53.002;6.488;2024-01-10T04:14:01;21.23;;;13.50;;
54191;SDS011;40101;53.002;6.488;2024-01-10T04:16:28;24.67;;;12.85;;
54191;SDS011;40101;53.002;6.488;2024-01-10T04:18:54;23.60;;;12.35;;
54191;SDS011;40101;53.002;6.488;2024-01-10T04:21:20;24.73;;;12.93;;
54191;SDS011;40101;53.002;6.488;2024-01-10T04:23:49;22.60;;;13.05;;
54191;SDS011;40101;53.002;6.488;2024-01-10T04:26:17;23.90;;;13.45;;
54191;SDS011;40101;53.002;6.488;2024-01-10T04:28:43;25.30;;;14.30;;
54191;SDS011;40101;53.002;6.488;2024-01-10T04:31:08;21.60;;;13.07;;
54191;SDS011;40101;53.002;6.488;2024-01-10T04:33:34;22.92;;;12.45;;
54191;SDS011;40101;53.002;6.488;2024-01-10T04:36:01;24.17;;;12.90;;
54191;SDS011;40101;53.002;6.488;2024-01-10T04:38:27;23.45;;;12.88;;
54191;SDS011;40101;53.002;6.488;2024-01-10T04:40:53;29.05;;;14.55;;
54191;SDS011;40101;53.002;6.488;2024-01-10T04:43:19;22.25;;;12.15;;
54191;SDS011;40101;53.002;6.488;2024-01-10T04:45:45;23.42;;;13.65;;
54191;SDS011;40101;53.002;6.488;2024-01-10T04:48:11;28.42;;;13.48;;
54191;SDS011;40101;53.002;6.488;2024-01-10T04:50:37;26.65;;;14.38;;
54191;SDS011;40101;53.002;6.488;2024-01-10T04:53:05;24.83;;;13.55;;
54191;SDS011;40101;53.002;6.488;2024-01-10T05:01:58;24.42;;;13.15;;
54191;SDS011;40101;53.002;6.488;2024-01-10T05:04:54;23.85;;;12.48;;
54191;SDS011;40101;53.002;6.488;2024-01-10T05:07:28;21.10;;;11.73;;
54191;SDS011;40101;53.002;6.488;2024-01-10T05:14:25;22.38;;;11.98;;
54191;SDS011;40101;53.002;6.488;2024-01-10T05:16:51;23.98;;;12.73;;
54191;SDS011;40101;53.002;6.488;2024-01-10T05:19:18;24.60;;;13.20;;
54191;SDS011;40101;53.002;6.488;2024-01-10T05:21:44;22.48;;;13.38;;
54191;SDS011;40101;53.002;6.488;2024-01-10T05:24:10;28.30;;;15.10;;
54191;SDS011;40101;53.002;6.488;2024-01-10T05:26:36;24.25;;;12.13;;
54191;SDS011;40101;53.002;6.488;2024-01-10T05:29:02;23.63;;;12.35;;
54191;SDS011;40101;53.002;6.488;2024-01-10T05:31:28;24.92;;;12.57;;
54191;SDS011;40101;53.002;6.488;2024-01-10T05:33:53;28.27;;;13.90;;
54191;SDS011;40101;53.002;6.488;2024-01-10T05:36:22;29.27;;;13.68;;
54191;SDS011;40101;53.002;6.488;2024-01-10T05:38:49;23.45;;;12.50;;
54191;SDS011;40101;53.002;6.488;2024-01-10T05:41:15;25.98;;;13.82;;
54191;SDS011;40101;53.002;6.488;2024-01-10T05:43:44;22.15;;;13.38;;
54191;SDS011;40101;53.002;6.488;2024-01-10T05:46:18;23.48;;;13.13;;
54191;SDS011;40101;53.002;6.488;2024-01-10T05:48:54;26.05;;;15.32;;
54191;SDS011;40101;53.002;6.488;2024-01-10T05:51:20;23.30;;;13.23;;
54191;SDS011;40101;53.002;6.488;2024-01-10T05:53:46;24.75;;;14.57;;
54191;SDS011;40101;53.002;6.488;2024-01-10T05:56:12;25.67;;;13.30;;
54191;SDS011;40101;53.002;6.488;2024-01-10T06:01:18;26.85;;;14.15;;
54191;SDS011;40101;53.002;6.488;2024-01-10T06:04:00;24.88;;;12.57;;
54191;SDS011;40101;53.002;6.488;2024-01-10T06:06:26;26.13;;;14.13;;
54191;SDS011;40101;53.002;6.488;2024-01-10T06:08:52;28.45;;;14.38;;
54191;SDS011;40101;53.002;6.488;2024-01-10T06:11:21;24.02;;;12.82;;
54191;SDS011;40101;53.002;6.488;2024-01-10T06:13:47;24.80;;;14.75;;
54191;SDS011;40101;53.002;6.488;2024-01-10T06:16:13;29.45;;;13.68;;
54191;SDS011;40101;53.002;6.488;2024-01-10T06:18:39;27.08;;;14.95;;
54191;SDS011;40101;53.002;6.488;2024-01-10T06:21:05;25.92;;;14.13;;
54191;SDS011;40101;53.002;6.488;2024-01-10T06:23:30;29.90;;;15.55;;
54191;SDS011;40101;53.002;6.488;2024-01-10T06:25:56;24.15;;;13.38;;
54191;SDS011;40101;53.002;6.488;2024-01-10T06:28:22;31.48;;;14.57;;
54191;SDS011;40101;53.002;6.488;2024-01-10T06:30:48;24.05;;;14.52;;
54191;SDS011;40101;53.002;6.488;2024-01-10T06:33:14;25.42;;;15.40;;
54191;SDS011;40101;53.002;6.488;2024-01-10T06:35:41;25.70;;;14.95;;
54191;SDS011;40101;53.002;6.488;2024-01-10T06:38:10;21.33;;;13.20;;
54191;SDS011;40101;53.002;6.488;2024-01-10T06:40:36;24.15;;;14.32;;
54191;SDS011;40101;53.002;6.488;2024-01-10T06:43:02;29.00;;;15.63;;
54191;SDS011;40101;53.002;6.488;2024-01-10T06:45:33;26.83;;;15.45;;
54191;SDS011;40101;53.002;6.488;2024-01-10T06:47:59;25.63;;;14.27;;
54191;SDS011;40101;53.002;6.488;2024-01-10T06:50:25;30.30;;;15.45;;
54191;SDS011;40101;53.002;6.488;2024-01-10T06:52:50;26.05;;;13.95;;
54191;SDS011;40101;53.002;6.488;2024-01-10T06:55:16;25.10;;;14.45;;
54191;SDS011;40101;53.002;6.488;2024-01-10T06:57:43;25.13;;;13.45;;
54191;SDS011;40101;53.002;6.488;2024-01-10T07:00:09;30.55;;;14.35;;
54191;SDS011;40101;53.002;6.488;2024-01-10T07:02:38;24.27;;;14.45;;
54191;SDS011;40101;53.002;6.488;2024-01-10T07:05:08;23.05;;;14.32;;
54191;SDS011;40101;53.002;6.488;2024-01-10T07:07:34;24.02;;;14.35;;
54191;SDS011;40101;53.002;6.488;2024-01-10T07:10:00;31.75;;;15.02;;
54191;SDS011;40101;53.002;6.488;2024-01-10T07:12:30;29.80;;;13.50;;
54191;SDS011;40101;53.002;6.488;2024-01-10T07:14:59;22.75;;;13.88;;
54191;SDS011;40101;53.002;6.488;2024-01-10T07:17:25;22.63;;;13.05;;
54191;SDS011;40101;53.002;6.488;2024-01-10T07:19:51;23.35;;;13.48;;
54191;SDS011;40101;53.002;6.488;2024-01-10T07:22:17;25.75;;;14.05;;
54191;SDS011;40101;53.002;6.488;2024-01-10T07:24:45;26.15;;;14.20;;
54191;SDS011;40101;53.002;6.488;2024-01-10T07:27:11;26.27;;;13.45;;
54191;SDS011;40101;53.002;6.488;2024-01-10T07:29:39;26.02;;;14.23;;
54191;SDS011;40101;53.002;6.488;2024-01-10T07:32:07;21.85;;;13.73;;
54191;SDS011;40101;53.002;6.488;2024-01-10T07:34:36;24.98;;;13.20;;
54191;SDS011;40101;53.002;6.488;2024-01-10T07:37:02;21.98;;;13.80;;
54191;SDS011;40101;53.002;6.488;2024-01-10T07:39:28;22.17;;;12.88;;
54191;SDS011;40101;53.002;6.488;2024-01-10T07:41:55;21.73;;;14.40;;
54191;SDS011;40101;53.002;6.488;2024-01-10T07:44:21;24.55;;;13.73;;
54191;SDS011;40101;53.002;6.488;2024-01-10T07:46:47;29.25;;;14.60;;
54191;SDS011;40101;53.002;6.488;2024-01-10T07:49:12;25.80;;;13.80;;
54191;SDS011;40101;53.002;6.488;2024-01-10T07:51:41;28.98;;;14.50;;
54191;SDS011;40101;53.002;6.488;2024-01-10T07:54:07;34.25;;;13.88;;
54191;SDS011;40101;53.002;6.488;2024-01-10T07:56:33;22.60;;;13.43;;
54191;SDS011;40101;53.002;6.488;2024-01-10T07:58:59;22.25;;;13.82;;
54191;SDS011;40101;53.002;6.488;2024-01-10T08:01:25;27.13;;;13.95;;
54191;SDS011;40101;53.002;6.488;2024-01-10T08:03:51;24.80;;;14.23;;
54191;SDS011;40101;53.002;6.488;2024-01-10T08:06:17;22.45;;;13.45;;
54191;SDS011;40101;53.002;6.488;2024-01-10T08:08:42;24.63;;;12.88;;
54191;SDS011;40101;53.002;6.488;2024-01-10T08:11:08;24.33;;;14.00;;
54191;SDS011;40101;53.002;6.488;2024-01-10T08:13:34;23.40;;;13.52;;
54191;SDS011;40101;53.002;6.488;2024-01-10T08:15:59;23.17;;;12.50;;
54191;SDS011;40101;53.002;6.488;2024-01-10T08:18:25;25.70;;;14.30;;
54191;SDS011;40101;53.002;6.488;2024-01-10T08:20:51;23.13;;;13.90;;
54191;SDS011;40101;53.002;6.488;2024-01-10T08:23:17;26.42;;;13.95;;
54191;SDS011;40101;53.002;6.488;2024-01-10T08:25:43;26.35;;;13.75;;
54191;SDS011;40101;53.002;6.488;2024-01-10T08:28:09;21.95;;;12.32;;
54191;SDS011;40101;53.002;6.488;2024-01-10T08:30:35;20.23;;;12.30;;
54191;SDS011;40101;53.002;6.488;2024-01-10T08:33:00;26.33;;;13.13;;
54191;SDS011;40101;53.002;6.488;2024-01-10T08:35:29;22.80;;;12.27;;
54191;SDS011;40101;53.002;6.488;2024-01-10T08:37:55;18.55;;;12.13;;
54191;SDS011;40101;53.002;6.488;2024-01-10T08:40:20;23.25;;;13.70;;
54191;SDS011;40101;53.002;6.488;2024-01-10T08:42:50;21.13;;;12.80;;
54191;SDS011;40101;53.002;6.488;2024-01-10T08:45:17;20.50;;;12.32;;
54191;SDS011;40101;53.002;6.488;2024-01-10T08:47:42;22.83;;;11.75;;
54191;SDS011;40101;53.002;6.488;2024-01-10T08:50:10;21.90;;;12.50;;
54191;SDS011;40101;53.002;6.488;2024-01-10T08:52:36;20.75;;;12.82;;
54191;SDS011;40101;53.002;6.488;2024-01-10T08:55:05;23.45;;;12.75;;
54191;SDS011;40101;53.002;6.488;2024-01-10T08:57:31;22.25;;;12.90;;
54191;SDS011;40101;53.002;6.488;2024-01-10T08:59:57;27.38;;;12.75;;
54191;SDS011;40101;53.002;6.488;2024-01-10T09:02:22;20.77;;;12.77;;
54191;SDS011;40101;53.002;6.488;2024-01-10T09:04:49;24.23;;;12.68;;
54191;SDS011;40101;53.002;6.488;2024-01-10T09:07:17;23.40;;;12.48;;
54191;SDS011;40101;53.002;6.488;2024-01-10T09:09:43;22.45;;;11.50;;
54191;SDS011;40101;53.002;6.488;2024-01-10T09:12:09;21.67;;;11.95;;
54191;SDS011;40101;53.002;6.488;2024-01-10T09:14:34;28.38;;;11.52;;
54191;SDS011;40101;53.002;6.488;2024-01-10T09:17:00;20.92;;;11.77;;
54191;SDS011;40101;53.002;6.488;2024-01-10T09:19:31;20.30;;;11.82;;
54191;SDS011;40101;53.002;6.488;2024-01-10T09:21:57;20.45;;;11.52;;
54191;SDS011;40101;53.002;6.488;2024-01-10T09:28:04;20.50;;;11.18;;
54191;SDS011;40101;53.002;6.488;2024-01-10T09:30:30;19.13;;;10.45;;
54191;SDS011;40101;53.002;6.488;2024-01-10T09:32:56;18.95;;;10.43;;
54191;SDS011;40101;53.002;6.488;2024-01-10T09:35:22;22.50;;;10.82;;
54191;SDS011;40101;53.002;6.488;2024-01-10T09:37:48;26.38;;;12.30;;
54191;SDS011;40101;53.002;6.488;2024-01-10T09:40:15;21.05;;;10.82;;
54191;SDS011;40101;53.002;6.488;2024-01-10T09:42:42;25.08;;;11.07;;
54191;SDS011;40101;53.002;6.488;2024-01-10T09:45:09;22.17;;;9.95;;
54191;SDS011;40101;53.002;6.488;2024-01-10T09:47:37;22.58;;;11.07;;
54191;SDS011;40101;53.002;6.488;2024-01-10T09:50:05;24.20;;;10.70;;
54191;SDS011;40101;53.002;6.488;2024-01-10T09:52:34;22.67;;;10.50;;
54191;SDS011;40101;53.002;6.488;2024-01-10T09:55:15;19.63;;;9.55;;
54191;SDS011;40101;53.002;6.488;2024-01-10T09:57:42;18.90;;;10.18;;
54191;SDS011;40101;53.002;6.488;2024-01-10T10:00:11;18.15;;;9.75;;
54191;SDS011;40101;53.002;6.488;2024-01-10T10:02:38;18.38;;;9.82;;
54191;SDS011;40101;53.002;6.488;2024-01-10T10:05:08;19.27;;;10.10;;
54191;SDS011;40101;53.002;6.488;2024-01-10T10:07:49;18.63;;;10.15;;
54191;SDS011;40101;53.002;6.488;2024-01-10T10:10:16;18.05;;;9.82;;
54191;SDS011;40101;53.002;6.488;2024-01-10T10:12:46;19.83;;;9.75;;
54191;SDS011;40101;53.002;6.488;2024-01-10T10:15:13;24.38;;;11.23;;
54191;SDS011;40101;53.002;6.488;2024-01-10T10:17:41;19.33;;;8.73;;
54191;SDS011;40101;53.002;6.488;2024-01-10T10:20:35;23.75;;;10.80;;
54191;SDS011;40101;53.002;6.488;2024-01-10T10:23:05;19.25;;;9.60;;
54191;SDS011;40101;53.002;6.488;2024-01-10T10:25:33;19.52;;;9.70;;
54191;SDS011;40101;53.002;6.488;2024-01-10T10:28:00;21.77;;;10.35;;
54191;SDS011;40101;53.002;6.488;2024-01-10T10:30:27;16.10;;;9.15;;
54191;SDS011;40101;53.002;6.488;2024-01-10T10:32:53;19.38;;;10.23;;
54191;SDS011;40101;53.002;6.488;2024-01-10T10:35:20;20.45;;;10.27;;
54191;SDS011;40101;53.002;6.488;2024-01-10T10:37:47;19.13;;;9.07;;
54191;SDS011;40101;53.002;6.488;2024-01-10T10:40:14;20.08;;;9.70;;
54191;SDS011;40101;53.002;6.488;2024-01-10T10:42:40;19.05;;;9.45;;
54191;SDS011;40101;53.002;6.488;2024-01-10T10:45:12;22.55;;;10.35;;
54191;SDS011;40101;53.002;6.488;2024-01-10T10:47:41;18.77;;;9.45;;
54191;SDS011;40101;53.002;6.488;2024-01-10T10:50:12;18.58;;;9.20;;
54191;SDS011;40101;53.002;6.488;2024-01-10T10:52:58;18.23;;;8.77;;
54191;SDS011;40101;53.002;6.488;2024-01-10T10:55:25;20.00;;;10.30;;
54191;SDS011;40101;53.002;6.488;2024-01-10T11:00:44;18.55;;;8.27;;
54191;SDS011;40101;53.002;6.488;2024-01-10T11:03:11;19.58;;;9.88;;
54191;SDS011;40101;53.002;6.488;2024-01-10T11:05:39;19.88;;;10.25;;
54191;SDS011;40101;53.002;6.488;2024-01-10T11:08:05;18.80;;;9.60;;
54191;SDS011;40101;53.002;6.488;2024-01-10T11:10:36;18.98;;;8.90;;
54191;SDS011;40101;53.002;6.488;2024-01-10T11:16:08;20.42;;;9.68;;
54191;SDS011;40101;53.002;6.488;2024-01-10T11:19:05;24.35;;;8.90;;
54191;SDS011;40101;53.002;6.488;2024-01-10T11:24:39;16.23;;;7.85;;
54191;SDS011;40101;53.002;6.488;2024-01-10T11:27:15;20.50;;;9.95;;
54191;SDS011;40101;53.002;6.488;2024-01-10T11:29:45;13.32;;;6.93;;
54191;SDS011;40101;53.002;6.488;2024-01-10T11:32:13;16.38;;;8.02;;
54191;SDS011;40101;53.002;6.488;2024-01-10T11:34:58;16.65;;;7.28;;
54191;SDS011;40101;53.002;6.488;2024-01-10T11:37:47;18.23;;;8.38;;
54191;SDS011;40101;53.002;6.488;2024-01-10T11:40:12;17.05;;;8.60;;
54191;SDS011;40101;53.002;6.488;2024-01-10T11:42:45;18.58;;;8.65;;
54191;SDS011;40101;53.002;6.488;2024-01-10T11:47:59;20.75;;;10.02;;
54191;SDS011;40101;53.002;6.488;2024-01-10T11:50:24;27.20;;;8.35;;
54191;SDS011;40101;53.002;6.488;2024-01-10T11:52:54;18.25;;;8.68;;
54191;SDS011;40101;53.002;6.488;2024-01-10T11:58:17;18.42;;;8.40;;
54191;SDS011;40101;53.002;6.488;2024-01-10T12:00:43;16.02;;;7.53;;
54191;SDS011;40101;53.002;6.488;2024-01-10T12:03:10;15.48;;;7.72;;
54191;SDS011;40101;53.002;6.488;2024-01-10T12:05:37;17.10;;;8.05;;
54191;SDS011;40101;53.002;6.488;2024-01-10T12:08:10;19.48;;;7.65;;
54191;SDS011;40101;53.002;6.488;2024-01-10T12:10:35;18.85;;;8.43;;
54191;SDS011;40101;53.002;6.488;2024-01-10T12:13:05;16.02;;;8.00;;
54191;SDS011;40101;53.002;6.488;2024-01-10T12:15:31;19.75;;;8.63;;
54191;SDS011;40101;53.002;6.488;2024-01-10T12:17:56;19.98;;;7.55;;
54191;SDS011;40101;53.002;6.488;2024-01-10T12:20:22;14.60;;;7.53;;
54191;SDS011;40101;53.002;6.488;2024-01-10T12:22:48;14.68;;;7.78;;
54191;SDS011;40101;53.002;6.488;2024-01-10T12:25:13;14.20;;;7.22;;
54191;SDS011;40101;53.002;6.488;2024-01-10T12:27:41;14.75;;;7.03;;
54191;SDS011;40101;53.002;6.488;2024-01-10T12:30:07;13.63;;;6.65;;
54191;SDS011;40101;53.002;6.488;2024-01-10T12:32:33;14.52;;;7.05;;
54191;SDS011;40101;53.002;6.488;2024-01-10T12:35:02;14.93;;;7.53;;
54191;SDS011;40101;53.002;6.488;2024-01-10T12:37:29;15.25;;;6.80;;
54191;SDS011;40101;53.002;6.488;2024-01-10T12:39:56;16.80;;;7.95;;
54191;SDS011;40101;53.002;6.488;2024-01-10T12:42:22;14.07;;;7.57;;
54191;SDS011;40101;53.002;6.488;2024-01-10T12:44:48;17.52;;;8.02;;
54191;SDS011;40101;53.002;6.488;2024-01-10T12:47:20;13.60;;;7.20;;
54191;SDS011;40101;53.002;6.488;2024-01-10T12:49:47;14.52;;;7.90;;
54191;SDS011;40101;53.002;6.488;2024-01-10T12:52:16;15.80;;;7.28;;
54191;SDS011;40101;53.002;6.488;2024-01-10T12:54:52;14.85;;;6.22;;
54191;SDS011;40101;53.002;6.488;2024-01-10T12:57:21;14.38;;;6.93;;
54191;SDS011;40101;53.002;6.488;2024-01-10T12:59:48;14.93;;;7.43;;
54191;SDS011;40101;53.002;6.488;2024-01-10T13:02:14;13.63;;;6.72;;
54191;SDS011;40101;53.002;6.488;2024-01-10T13:04:45;14.40;;;6.88;;
54191;SDS011;40101;53.002;6.488;2024-01-10T13:07:17;11.35;;;6.30;;
54191;SDS011;40101;53.002;6.488;2024-01-10T13:09:58;11.60;;;5.55;;
54191;SDS011;40101;53.002;6.488;2024-01-10T13:15:21;14.32;;;6.93;;
54191;SDS011;40101;53.002;6.488;2024-01-10T13:17:47;12.02;;;6.60;;
54191;SDS011;40101;53.002;6.488;2024-01-10T13:20:22;11.35;;;6.43;;
54191;SDS011;40101;53.002;6.488;2024-01-10T13:22:49;16.13;;;7.72;;
54191;SDS011;40101;53.002;6.488;2024-01-10T13:25:16;14.73;;;7.57;;
54191;SDS011;40101;53.002;6.488;2024-01-10T13:27:54;14.70;;;7.32;;
54191;SDS011;40101;53.002;6.488;2024-01-10T13:30:20;15.10;;;7.10;;
54191;SDS011;40101;53.002;6.488;2024-01-10T13:32:51;14.35;;;7.78;;
54191;SDS011;40101;53.002;6.488;2024-01-10T13:35:17;18.30;;;7.07;;
54191;SDS011;40101;53.002;6.488;2024-01-10T13:37:58;18.30;;;7.93;;
54191;SDS011;40101;53.002;6.488;2024-01-10T13:40:32;14.32;;;7.22;;
54191;SDS011;40101;53.002;6.488;2024-01-10T13:42:59;13.23;;;7.15;;
54191;SDS011;40101;53.002;6.488;2024-01-10T13:45:27;13.82;;;6.40;;
54191;SDS011;40101;53.002;6.488;2024-01-10T13:48:03;13.93;;;7.15;;
54191;SDS011;40101;53.002;6.488;2024-01-10T13:54:05;14.18;;;6.63;;
54191;SDS011;40101;53.002;6.488;2024-01-10T13:56:37;13.20;;;7.07;;
54191;SDS011;40101;53.002;6.488;2024-01-10T13:59:04;13.45;;;6.97;;
54191;SDS011;40101;53.002;6.488;2024-01-10T14:01:33;14.77;;;6.82;;
54191;SDS011;40101;53.002;6.488;2024-01-10T14:03:59;15.32;;;7.35;;
54191;SDS011;40101;53.002;6.488;2024-01-10T14:06:27;14.57;;;6.93;;
54191;SDS011;40101;53.002;6.488;2024-01-10T14:09:11;13.07;;;6.10;;
54191;SDS011;40101;53.002;6.488;2024-01-10T14:11:40;15.50;;;7.05;;
54191;SDS011;40101;53.002;6.488;2024-01-10T14:20:09;12.65;;;7.15;;
54191;SDS011;40101;53.002;6.488;2024-01-10T14:22:36;12.35;;;6.43;;
54191;SDS011;40101;53.002;6.488;2024-01-10T14:25:02;12.70;;;6.25;;
54191;SDS011;40101;53.002;6.488;2024-01-10T14:27:28;14.75;;;7.22;;
54191;SDS011;40101;53.002;6.488;2024-01-10T14:30:12;14.50;;;7.15;;
54191;SDS011;40101;53.002;6.488;2024-01-10T14:35:27;13.63;;;6.65;;
54191;SDS011;40101;53.002;6.488;2024-01-10T14:38:12;15.05;;;7.72;;
54191;SDS011;40101;53.002;6.488;2024-01-10T14:43:25;16.65;;;7.22;;
54191;SDS011;40101;53.002;6.488;2024-01-10T14:45:51;13.93;;;6.78;;
54191;SDS011;40101;53.002;6.488;2024-01-10T14:48:35;17.70;;;7.85;;
54191;SDS011;40101;53.002;6.488;2024-01-10T14:53:51;14.52;;;7.72;;
54191;SDS011;40101;53.002;6.488;2024-01-10T14:56:27;16.55;;;8.52;;
54191;SDS011;40101;53.002;6.488;2024-01-10T15:02:39;17.02;;;7.72;;
54191;SDS011;40101;53.002;6.488;2024-01-10T15:05:05;17.63;;;8.27;;
54191;SDS011;40101;53.002;6.488;2024-01-10T15:07:31;17.42;;;8.05;;
54191;SDS011;40101;53.002;6.488;2024-01-10T15:10:01;16.38;;;7.78;;
54191;SDS011;40101;53.002;6.488;2024-01-10T15:12:39;15.75;;;8.77;;
54191;SDS011;40101;53.002;6.488;2024-01-10T15:18:43;15.07;;;8.13;;
54191;SDS011;40101;53.002;6.488;2024-01-10T15:24:00;16.48;;;8.00;;
54191;SDS011;40101;53.002;6.488;2024-01-10T15:26:34;15.27;;;8.45;;
54191;SDS011;40101;53.002;6.488;2024-01-10T15:29:15;16.45;;;8.70;;
54191;SDS011;40101;53.002;6.488;2024-01-10T15:34:35;19.27;;;9.45;;
54191;SDS011;40101;53.002;6.488;2024-01-10T15:37:05;15.88;;;7.82;;
54191;SDS011;40101;53.002;6.488;2024-01-10T15:39:39;18.27;;;9.20;;
54191;SDS011;40101;53.002;6.488;2024-01-10T15:42:08;20.00;;;10.13;;
54191;SDS011;40101;53.002;6.488;2024-01-10T15:47:29;21.02;;;9.95;;
54191;SDS011;40101;53.002;6.488;2024-01-10T15:50:00;16.65;;;9.55;;
54191;SDS011;40101;53.002;6.488;2024-01-10T15:52:30;16.38;;;8.48;;
54191;SDS011;40101;53.002;6.488;2024-01-10T15:54:55;19.50;;;9.43;;
54191;SDS011;40101;53.002;6.488;2024-01-10T15:57:32;17.33;;;9.18;;
54191;SDS011;40101;53.002;6.488;2024-01-10T15:59:58;16.00;;;8.63;;
54191;SDS011;40101;53.002;6.488;2024-01-10T16:02:27;17.40;;;9.43;;
54191;SDS011;40101;53.002;6.488;2024-01-10T16:05:04;17.63;;;9.00;;
54191;SDS011;40101;53.002;6.488;2024-01-10T16:07:56;18.17;;;8.80;;
54191;SDS011;40101;53.002;6.488;2024-01-10T16:10:25;19.75;;;8.88;;
54191;SDS011;40101;53.002;6.488;2024-01-10T16:18:09;20.17;;;9.95;;
54191;SDS011;40101;53.002;6.488;2024-01-10T16:23:32;18.92;;;9.75;;
54191;SDS011;40101;53.002;6.488;2024-01-10T16:28:58;21.35;;;9.75;;
54191;SDS011;40101;53.002;6.488;2024-01-10T16:31:27;19.38;;;10.50;;
54191;SDS011;40101;53.002;6.488;2024-01-10T16:37:42;20.77;;;10.85;;
54191;SDS011;40101;53.002;6.488;2024-01-10T16:43:17;21.60;;;10.77;;
54191;SDS011;40101;53.002;6.488;2024-01-10T16:45:43;20.52;;;10.93;;
54191;SDS011;40101;53.002;6.488;2024-01-10T16:51:15;22.48;;;10.80;;
54191;SDS011;40101;53.002;6.488;2024-01-10T16:54:04;20.25;;;10.73;;
54191;SDS011;40101;53.002;6.488;2024-01-10T16:56:31;22.85;;;12.10;;
54191;SDS011;40101;53.002;6.488;2024-01-10T16:58:57;18.73;;;10.75;;
54191;SDS011;40101;53.002;6.488;2024-01-10T17:01:47;17.15;;;10.20;;
54191;SDS011;40101;53.002;6.488;2024-01-10T17:09:54;20.05;;;10.95;;
54191;SDS011;40101;53.002;6.488;2024-01-10T17:12:28;19.95;;;9.55;;
54191;SDS011;40101;53.002;6.488;2024-01-10T17:17:59;18.25;;;10.20;;
54191;SDS011;40101;53.002;6.488;2024-01-10T17:20:27;22.23;;;11.43;;
54191;SDS011;40101;53.002;6.488;2024-01-10T17:25:32;16.83;;;9.82;;
54191;SDS011;40101;53.002;6.488;2024-01-10T17:27:57;22.38;;;10.57;;
54191;SDS011;40101;53.002;6.488;2024-01-10T17:30:23;19.20;;;9.80;;
54191;SDS011;40101;53.002;6.488;2024-01-10T17:32:50;18.83;;;10.13;;
54191;SDS011;40101;53.002;6.488;2024-01-10T17:35:16;19.90;;;11.00;;
54191;SDS011;40101;53.002;6.488;2024-01-10T17:37:48;22.05;;;10.70;;
54191;SDS011;40101;53.002;6.488;2024-01-10T17:40:19;22.58;;;10.90;;
54191;SDS011;40101;53.002;6.488;2024-01-10T17:42:45;21.02;;;11.20;;
54191;SDS011;40101;53.002;6.488;2024-01-10T17:45:17;22.20;;;10.40;;
54191;SDS011;40101;53.002;6.488;2024-01-10T17:47:43;19.90;;;10.55;;
54191;SDS011;40101;53.002;6.488;2024-01-10T17:50:09;19.33;;;10.52;;